Pagrindinis puslapis
METAR-TAF:

METAR-TAF

Oro uostai :

Faßberg, Vokietija

platuma: 52-55N, ilguma: 010-11E, Aukštis: 75 m

Dabartinis oras

Ataskaita buvo paskelbta 1 valandą ir 11 minutes, ne 08:20 UTC
Vėjas 3 kt iš Vakarų
Temperatūra 10°C
Drėgmė 76%
Slėgis 1030 hPa
Matomumas 10 km arba daugiau
Su prošvaistėmis ne aukštis 4800 ft

METAR: ETHS 200820Z 28003KT 9999 BKN048 10/06 Q1030 BLU BLU

Laikas: 11:31 (09:31 UTC)

Prognozė

Ataskaita buvo paskelbta 2 valandos ir 19 minutes, ne 07:12 UTC
Prognozė galioja nuo 20 metu 08 UTC su 20 metu 17 UTC
Vėjas 7 kt iš Vakarų
Matomumas 10 km arba daugiau
Mažai debesys ne aukštis 3000 ft
Su prošvaistėmis ne aukštis 5000 ft

TAF: ETHS 200712Z 2008/2017 27007KT 9999 NSW FEW030 BKN050

Orai ataskaitas ir orų prognozės (METAR, TAF).

turimą stotys yra geltonos ir raudonos taškus žemėlapyje.

Perkelti pele per norėdami pamatyti stoties vardą.

Tada spustelėkite, norėdami matyti oro stebėjimo ir prognozės.

Norėdami pakeisti žemėlapį: spustelėkite ant žalios mygtukų su juodo kryžiaus žemyn,; žalią mygtuką su brūkšneliu, jei norite nutolinti; arba žalių rodyklių gretimoms žemėlapius.


METAR-TAF: